Time;durP1;ratioP1;P1;durP2;ratioP2;P2;SDS_P1;SDS_P2;PMS_P1;PMS_P2;Temp;Humidity;BMP_temperature;BMP_pressure;BME280_temperature;BME280_humidity;BME280_pressure;Samples;Min_cycle;Max_cycle;Signal;HPM_P1;HPM_P2
2022/03/24 00:01:34;;;;;;;36.13;19.55;;;;;;;;;;10469784;28;20483;-70
2022/03/24 00:06:35;;;;;;;32.25;16.40;;;;;;;;;;10469834;28;20021;-69
2022/03/24 00:11:35;;;;;;;35.75;17.48;;;;;;;;;;10469812;28;20036;-70
2022/03/24 00:16:35;;;;;;;32.40;14.63;;;;;;;;;;10470074;28;20112;-70
2022/03/24 00:21:36;;;;;;;30.63;14.77;;;;;;;;;;10487568;28;20119;-72
2022/03/24 00:26:37;;;;;;;28.33;14.07;;;;;;;;;;10469620;28;20028;-75
2022/03/24 00:31:37;;;;;;;24.63;13.30;;;;;;;;;;10487638;28;20031;-73
2022/03/24 00:36:37;;;;;;;29.73;12.77;;;;;;;;;;10469103;28;20082;-72
2022/03/24 00:41:38;;;;;;;33.97;17.13;;;;;;;;;;10487560;28;20024;-70
2022/03/24 00:46:38;;;;;;;36.70;13.90;;;;;;;;;;10468286;28;20815;-70
2022/03/24 00:51:38;;;;;;;34.42;13.25;;;;;;;;;;10469215;28;20027;-71
2022/03/24 00:56:39;;;;;;;27.58;13.23;;;;;;;;;;10475512;28;20020;-72
2022/03/24 01:01:39;;;;;;;36.20;13.88;;;;;;;;;;10476102;28;20103;-71
2022/03/24 01:06:39;;;;;;;28.92;15.32;;;;;;;;;;10476252;28;20023;-70
2022/03/24 01:11:40;;;;;;;35.20;14.70;;;;;;;;;;10494005;28;20600;-70
2022/03/24 01:16:41;;;;;;;30.52;15.32;;;;;;;;;;10475275;28;20566;-72
2022/03/24 01:21:41;;;;;;;30.13;15.18;;;;;;;;;;10475106;28;20351;-73
2022/03/24 01:26:42;;;;;;;21.05;10.93;;;;;;;;;;10491795;28;20312;-70
2022/03/24 01:31:42;;;;;;;21.02;10.98;;;;;;;;;;10475012;28;20017;-74
2022/03/24 01:36:42;;;;;;;21.00;10.63;;;;;;;;;;10492611;28;20482;-75
2022/03/24 01:41:47;;;;;;;17.83;11.00;;;;;;;;;;10474853;28;20710;-74
2022/03/24 01:46:54;;;;;;;19.88;10.82;;;;;;;;;;10492250;28;20426;-70
2022/03/24 01:51:55;;;;;;;17.10;9.70;;;;;;;;;;10458371;28;20485;-70
2022/03/24 01:56:56;;;;;;;21.05;10.05;;;;;;;;;;10492179;28;20036;-70
2022/03/24 02:01:57;;;;;;;17.73;9.07;;;;;;;;;;10493138;28;20104;-74
2022/03/24 02:06:57;;;;;;;18.13;10.15;;;;;;;;;;10473763;28;20029;-70
2022/03/24 02:11:58;;;;;;;16.33;9.55;;;;;;;;;;10473646;28;20358;-72
2022/03/24 02:16:58;;;;;;;17.20;9.57;;;;;;;;;;10473674;28;20025;-75
2022/03/24 02:22:12;;;;;;;28.13;11.05;;;;;;;;;;10473514;28;20577;-70
2022/03/24 02:27:12;;;;;;;19.23;10.75;;;;;;;;;;10473102;28;20017;-70
2022/03/24 02:32:16;;;;;;;22.33;12.32;;;;;;;;;;10472906;28;20473;-69
2022/03/24 02:37:19;;;;;;;19.73;10.30;;;;;;;;;;10490494;28;20017;-70
2022/03/24 02:42:21;;;;;;;21.10;11.57;;;;;;;;;;10455851;28;20016;-70
2022/03/24 02:47:23;;;;;;;20.55;15.32;;;;;;;;;;10471752;28;20053;-71
2022/03/24 02:52:24;;;;;;;24.88;14.77;;;;;;;;;;10472138;28;20497;-73
2022/03/24 02:57:24;;;;;;;22.83;13.55;;;;;;;;;;10490000;28;20031;-73
2022/03/24 03:02:24;;;;;;;22.50;13.67;;;;;;;;;;10472057;28;20127;-73
2022/03/24 03:07:25;;;;;;;29.30;12.90;;;;;;;;;;10471751;28;20451;-71
2022/03/24 03:12:28;;;;;;;28.23;15.10;;;;;;;;;;10489341;28;20367;-72
2022/03/24 03:17:28;;;;;;;24.85;13.48;;;;;;;;;;10470592;28;20116;-77
2022/03/24 03:22:29;;;;;;;25.27;13.00;;;;;;;;;;10471161;28;20477;-71
2022/03/24 03:27:31;;;;;;;24.65;14.70;;;;;;;;;;10470784;28;20021;-69
2022/03/24 03:32:32;;;;;;;22.05;13.93;;;;;;;;;;10470642;28;20016;-72
2022/03/24 03:37:32;;;;;;;21.17;11.73;;;;;;;;;;10470890;28;20508;-71
2022/03/24 03:42:32;;;;;;;23.43;13.40;;;;;;;;;;10470408;28;20464;-70
2022/03/24 03:47:32;;;;;;;27.45;15.40;;;;;;;;;;10470204;28;20066;-69
2022/03/24 03:52:33;;;;;;;26.90;14.30;;;;;;;;;;10470228;28;20028;-70
2022/03/24 03:57:33;;;;;;;25.08;11.75;;;;;;;;;;10470182;28;20123;-70
2022/03/24 04:02:34;;;;;;;33.50;13.00;;;;;;;;;;10488106;28;20037;-71
2022/03/24 04:07:34;;;;;;;34.75;13.07;;;;;;;;;;10469714;28;20024;-70
2022/03/24 04:12:35;;;;;;;31.02;13.77;;;;;;;;;;10469988;28;20016;-70
2022/03/24 04:17:35;;;;;;;43.95;17.33;;;;;;;;;;10469592;28;20451;-71
2022/03/24 04:22:35;;;;;;;29.10;14.80;;;;;;;;;;10469425;28;20418;-71
2022/03/24 04:27:35;;;;;;;28.97;14.03;;;;;;;;;;10470073;28;20472;-70
2022/03/24 04:32:36;;;;;;;29.23;15.80;;;;;;;;;;10482066;28;20046;-72
2022/03/24 04:37:37;;;;;;;35.03;18.05;;;;;;;;;;10517683;28;20520;-69
2022/03/24 04:42:38;;;;;;;31.95;16.17;;;;;;;;;;10525167;28;20103;-71
2022/03/24 04:47:38;;;;;;;17.83;11.02;;;;;;;;;;10508479;28;20056;-67
2022/03/24 04:52:38;;;;;;;17.15;11.00;;;;;;;;;;10507433;28;20023;-68
2022/03/24 04:57:39;;;;;;;21.13;10.63;;;;;;;;;;10475990;28;20025;-70
2022/03/24 05:02:39;;;;;;;21.05;12.60;;;;;;;;;;10476311;28;20567;-72
2022/03/24 05:07:41;;;;;;;30.52;14.90;;;;;;;;;;10488131;28;20686;-74
2022/03/24 05:12:41;;;;;;;29.50;13.38;;;;;;;;;;10500634;28;20016;-71
2022/03/24 05:17:41;;;;;;;20.40;9.20;;;;;;;;;;10517358;28;20557;-73
2022/03/24 05:22:42;;;;;;;23.13;9.07;;;;;;;;;;10516180;28;20027;-74
2022/03/24 05:27:42;;;;;;;18.60;8.93;;;;;;;;;;10493447;28;20021;-74
2022/03/24 05:32:42;;;;;;;17.30;8.63;;;;;;;;;;10474879;28;20031;-74
2022/03/24 05:37:43;;;;;;;14.33;7.93;;;;;;;;;;10474552;28;20040;-74
2022/03/24 05:42:43;;;;;;;15.70;9.30;;;;;;;;;;10474005;28;20411;-73
2022/03/24 05:47:44;;;;;;;22.88;8.23;;;;;;;;;;10492054;28;20045;-73
2022/03/24 05:52:45;;;;;;;26.33;8.13;;;;;;;;;;10492484;28;20021;-74
2022/03/24 05:57:46;;;;;;;20.70;8.52;;;;;;;;;;10474155;28;20021;-73
2022/03/24 06:02:49;;;;;;;23.67;8.95;;;;;;;;;;10492693;28;20020;-72
2022/03/24 06:07:50;;;;;;;26.80;10.32;;;;;;;;;;10474023;28;20028;-73
2022/03/24 06:12:51;;;;;;;38.90;10.38;;;;;;;;;;10474291;28;20106;-73
2022/03/24 06:17:51;;;;;;;30.30;11.77;;;;;;;;;;10489736;28;20463;-74
2022/03/24 06:22:54;;;;;;;29.15;12.65;;;;;;;;;;10491135;28;20030;-75
2022/03/24 06:27:55;;;;;;;36.67;15.70;;;;;;;;;;10490397;28;20100;-73
2022/03/24 06:32:56;;;;;;;38.90;16.15;;;;;;;;;;10472088;28;20473;-74
2022/03/24 06:37:56;;;;;;;36.08;17.08;;;;;;;;;;10472260;28;20027;-74
2022/03/24 06:42:56;;;;;;;35.67;17.35;;;;;;;;;;10471179;28;20040;-73
2022/03/24 06:47:57;;;;;;;41.97;19.15;;;;;;;;;;10471449;28;20476;-74
2022/03/24 06:52:57;;;;;;;41.03;18.17;;;;;;;;;;10470446;28;20478;-74
2022/03/24 06:57:57;;;;;;;45.47;17.35;;;;;;;;;;10471235;28;20080;-73
2022/03/24 07:02:58;;;;;;;46.00;18.67;;;;;;;;;;10471583;28;20029;-72
2022/03/24 07:07:59;;;;;;;47.30;17.85;;;;;;;;;;10471149;28;20074;-73
2022/03/24 07:12:59;;;;;;;31.23;16.17;;;;;;;;;;10471002;28;20283;-77
2022/03/24 07:17:59;;;;;;;40.30;16.03;;;;;;;;;;10470497;28;20783;-74
2022/03/24 07:23:02;;;;;;;40.72;16.35;;;;;;;;;;10470221;28;20142;-74
2022/03/24 07:28:04;;;;;;;35.22;14.57;;;;;;;;;;10469907;28;20050;-73
2022/03/24 07:33:05;;;;;;;38.58;14.55;;;;;;;;;;10470494;28;20021;-74
2022/03/24 07:38:07;;;;;;;37.23;14.97;;;;;;;;;;10470350;28;20020;-73
2022/03/24 07:43:08;;;;;;;31.75;15.35;;;;;;;;;;10469791;28;20027;-73
2022/03/24 07:48:09;;;;;;;44.90;16.63;;;;;;;;;;10487999;28;20526;-74
2022/03/24 07:53:13;;;;;;;35.95;16.08;;;;;;;;;;10453342;28;20067;-75
2022/03/24 07:58:14;;;;;;;38.22;16.10;;;;;;;;;;10469322;28;20111;-73
2022/03/24 08:03:19;;;;;;;35.10;14.95;;;;;;;;;;10472959;28;20111;-74
2022/03/24 08:08:20;;;;;;;32.83;14.95;;;;;;;;;;10477740;28;20034;-73
2022/03/24 08:13:21;;;;;;;31.05;13.38;;;;;;;;;;10478317;28;20405;-79
2022/03/24 08:18:22;;;;;;;31.65;14.57;;;;;;;;;;10496023;28;20035;-79
2022/03/24 08:23:22;;;;;;;33.45;15.52;;;;;;;;;;10495426;28;20024;-74
2022/03/24 08:28:22;;;;;;;31.23;15.52;;;;;;;;;;10495036;28;20128;-74
2022/03/24 08:33:23;;;;;;;32.60;14.83;;;;;;;;;;10477685;28;20082;-73
2022/03/24 08:38:23;;;;;;;28.02;12.10;;;;;;;;;;10460293;28;20089;-74
2022/03/24 08:43:23;;;;;;;45.87;13.03;;;;;;;;;;10476784;28;20101;-75
2022/03/24 08:48:23;;;;;;;28.58;12.13;;;;;;;;;;10476604;28;20101;-75
2022/03/24 08:53:24;;;;;;;19.67;10.05;;;;;;;;;;10476509;28;20024;-74
2022/03/24 08:58:24;;;;;;;26.83;11.48;;;;;;;;;;10476185;28;20032;-74
2022/03/24 09:03:25;;;;;;;20.25;9.82;;;;;;;;;;10476374;28;20081;-73
2022/03/24 09:08:25;;;;;;;23.98;10.30;;;;;;;;;;10476097;28;20035;-76
2022/03/24 09:13:26;;;;;;;16.08;9.40;;;;;;;;;;10493235;28;20020;-74
2022/03/24 09:18:27;;;;;;;18.20;9.10;;;;;;;;;;10493274;28;20033;-74
2022/03/24 09:23:28;;;;;;;13.55;7.60;;;;;;;;;;10493454;28;20446;-75
2022/03/24 09:28:28;;;;;;;20.10;8.70;;;;;;;;;;10474912;28;20020;-75
2022/03/24 09:33:29;;;;;;;21.20;7.57;;;;;;;;;;10474977;28;20475;-73
2022/03/24 09:38:29;;;;;;;15.60;6.65;;;;;;;;;;10474905;28;20453;-73
2022/03/24 09:43:30;;;;;;;14.35;6.40;;;;;;;;;;10474556;28;20031;-75
2022/03/24 09:48:30;;;;;;;11.70;5.97;;;;;;;;;;10474034;28;20049;-74
2022/03/24 09:53:30;;;;;;;9.90;5.27;;;;;;;;;;10474170;28;20021;-74
2022/03/24 09:58:31;;;;;;;17.67;5.22;;;;;;;;;;10474123;28;20130;-74
2022/03/24 10:03:31;;;;;;;13.33;5.30;;;;;;;;;;10473627;28;20410;-78
2022/03/24 10:08:31;;;;;;;12.23;4.63;;;;;;;;;;10490079;28;20560;-74
2022/03/24 10:13:45;;;;;;;13.68;4.45;;;;;;;;;;10515300;28;20211;-77
2022/03/24 10:19:01;;;;;;;9.50;4.10;;;;;;;;;;10514598;28;20024;-74
2022/03/24 10:24:13;;;;;;;6.13;3.83;;;;;;;;;;10532654;28;20028;-75
2022/03/24 10:29:17;;;;;;;8.00;4.10;;;;;;;;;;10513502;28;20097;-75
2022/03/24 10:34:27;;;;;;;16.02;4.20;;;;;;;;;;10513737;28;20043;-72
2022/03/24 10:39:27;;;;;;;8.95;4.15;;;;;;;;;;10514187;28;20028;-75
2022/03/24 10:44:27;;;;;;;10.40;5.10;;;;;;;;;;10512294;28;20024;-74
2022/03/24 10:49:28;;;;;;;8.50;3.83;;;;;;;;;;10531569;28;20075;-73
2022/03/24 10:54:46;;;;;;;10.05;4.50;;;;;;;;;;10513411;28;20028;-76
2022/03/24 10:59:48;;;;;;;12.73;4.05;;;;;;;;;;10512651;28;20032;-74
2022/03/24 11:04:48;;;;;;;12.10;3.97;;;;;;;;;;10512871;28;20016;-74
2022/03/24 11:09:48;;;;;;;9.82;4.85;;;;;;;;;;10512066;28;20409;-75
2022/03/24 11:14:54;;;;;;;16.50;4.97;;;;;;;;;;10512227;28;20434;-73
2022/03/24 11:19:55;;;;;;;12.85;4.65;;;;;;;;;;10495835;28;20134;-73
2022/03/24 11:24:56;;;;;;;11.63;4.65;;;;;;;;;;10512001;28;20141;-76
2022/03/24 11:29:57;;;;;;;6.55;4.22;;;;;;;;;;10530287;28;20515;-73
2022/03/24 11:34:58;;;;;;;17.00;6.57;;;;;;;;;;10511724;28;20534;-77
2022/03/24 11:40:07;;;;;;;14.90;6.85;;;;;;;;;;10535504;28;20030;-74
2022/03/24 11:45:18;;;;;;;9.13;5.80;;;;;;;;;;10511043;28;20044;-75
2022/03/24 11:50:35;;;;;;;16.95;6.50;;;;;;;;;;10511852;28;20052;-74
2022/03/24 11:55:37;;;;;;;10.60;6.05;;;;;;;;;;10494848;28;20157;-74
2022/03/24 12:00:40;;;;;;;10.18;5.10;;;;;;;;;;10510957;28;20020;-80
2022/03/24 12:05:48;;;;;;;12.60;6.35;;;;;;;;;;10510494;28;20500;-73
2022/03/24 12:10:49;;;;;;;11.02;5.32;;;;;;;;;;10511073;28;20039;-74
2022/03/24 12:16:08;;;;;;;10.03;5.77;;;;;;;;;;10528604;28;20099;-74
2022/03/24 12:21:17;;;;;;;10.43;5.55;;;;;;;;;;10511106;28;20024;-75
2022/03/24 12:26:17;;;;;;;10.38;5.63;;;;;;;;;;10510890;28;20048;-75
2022/03/24 12:31:18;;;;;;;10.07;5.38;;;;;;;;;;10510979;28;20115;-76
2022/03/24 12:36:47;;;;;;;7.80;4.77;;;;;;;;;;10528898;28;20114;-74
2022/03/24 12:42:01;;;;;;;7.95;4.45;;;;;;;;;;10493516;28;20062;-77
2022/03/24 12:47:01;;;;;;;9.23;5.30;;;;;;;;;;10510302;28;20530;-78
2022/03/24 12:52:06;;;;;;;8.13;5.03;;;;;;;;;;10515873;28;20024;-74
2022/03/24 12:57:19;;;;;;;12.55;5.13;;;;;;;;;;10517591;28;20012;-75
2022/03/24 13:02:20;;;;;;;6.03;3.42;;;;;;;;;;10498663;28;20032;-74
2022/03/24 13:07:22;;;;;;;8.68;3.47;;;;;;;;;;10475619;28;20024;-73
2022/03/24 13:12:27;;;;;;;6.20;3.35;;;;;;;;;;10499677;28;20164;-75
2022/03/24 13:17:32;;;;;;;7.97;4.05;;;;;;;;;;10487610;28;20416;-75
2022/03/24 13:22:33;;;;;;;6.55;3.63;;;;;;;;;;10492092;28;20028;-73
2022/03/24 13:27:34;;;;;;;9.13;3.90;;;;;;;;;;10534535;28;20020;-75
2022/03/24 13:32:35;;;;;;;8.68;2.80;;;;;;;;;;10517231;28;20064;-76
2022/03/24 13:37:37;;;;;;;5.45;3.20;;;;;;;;;;10516373;28;20529;-75
2022/03/24 13:42:38;;;;;;;7.30;2.97;;;;;;;;;;10494931;28;20154;-76
2022/03/24 13:47:43;;;;;;;7.55;4.13;;;;;;;;;;10473989;28;20105;-75
2022/03/24 13:52:45;;;;;;;8.68;3.00;;;;;;;;;;10473896;28;20029;-76
2022/03/24 13:57:47;;;;;;;9.38;2.85;;;;;;;;;;10493629;28;20028;-76
2022/03/24 14:02:53;;;;;;;8.07;3.30;;;;;;;;;;10534037;28;20465;-76
2022/03/24 14:07:54;;;;;;;5.47;3.22;;;;;;;;;;10512301;28;20020;-76
2022/03/24 14:12:54;;;;;;;11.45;5.00;;;;;;;;;;10473366;28;20016;-75
2022/03/24 14:18:13;;;;;;;8.45;5.10;;;;;;;;;;10473131;28;20027;-74
2022/03/24 14:23:30;;;;;;;15.38;6.47;;;;;;;;;;10491346;28;20039;-76
2022/03/24 14:28:37;;;;;;;14.00;5.65;;;;;;;;;;10503435;28;20029;-76
2022/03/24 14:33:44;;;;;;;11.88;4.60;;;;;;;;;;10489894;28;20415;-75
2022/03/24 14:39:02;;;;;;;10.57;6.32;;;;;;;;;;10490056;28;20024;-75
2022/03/24 14:44:03;;;;;;;10.98;5.85;;;;;;;;;;10505369;28;20121;-76
2022/03/24 14:49:05;;;;;;;13.63;6.50;;;;;;;;;;10509668;28;20151;-76
2022/03/24 14:54:07;;;;;;;18.42;5.93;;;;;;;;;;10471799;28;20048;-74
2022/03/24 14:59:08;;;;;;;15.02;6.28;;;;;;;;;;10471033;28;20096;-73
2022/03/24 15:04:09;;;;;;;19.05;6.70;;;;;;;;;;10489101;28;20029;-75
2022/03/24 15:09:09;;;;;;;12.77;6.10;;;;;;;;;;10500609;28;20470;-75
2022/03/24 15:19:28;;;;;;;20.33;6.25;;;;;;;;;;10529573;28;20035;-74
2022/03/24 15:24:28;;;;;;;15.43;6.33;;;;;;;;;;10529657;28;20020;-76
2022/03/24 15:29:28;;;;;;;13.63;6.90;;;;;;;;;;10513608;28;20339;-74
2022/03/24 15:34:29;;;;;;;13.93;6.32;;;;;;;;;;10469988;28;20108;-75
2022/03/24 15:39:29;;;;;;;13.85;6.57;;;;;;;;;;10471850;28;20057;-76
2022/03/24 15:44:29;;;;;;;13.93;7.47;;;;;;;;;;10511041;28;20354;-76
2022/03/24 15:49:30;;;;;;;10.30;6.07;;;;;;;;;;10528963;28;20301;-77
2022/03/24 15:54:33;;;;;;;16.67;8.35;;;;;;;;;;10527976;28;20782;-78
2022/03/24 15:59:34;;;;;;;18.75;6.70;;;;;;;;;;10531868;28;20016;-75
2022/03/24 16:04:34;;;;;;;14.65;8.00;;;;;;;;;;10507907;28;20029;-74
2022/03/24 16:09:34;;;;;;;29.92;8.10;;;;;;;;;;10468750;28;20024;-75
2022/03/24 16:14:35;;;;;;;19.97;8.27;;;;;;;;;;10469498;28;20021;-74
2022/03/24 16:19:36;;;;;;;22.07;7.47;;;;;;;;;;10510408;28;20047;-75
2022/03/24 16:24:36;;;;;;;20.67;7.90;;;;;;;;;;10514323;28;20093;-75
2022/03/24 16:29:36;;;;;;;18.48;7.05;;;;;;;;;;10517552;28;20126;-77
2022/03/24 16:34:37;;;;;;;13.23;7.30;;;;;;;;;;10518657;28;20112;-77
2022/03/24 16:39:37;;;;;;;17.60;8.33;;;;;;;;;;10517505;28;20024;-73
2022/03/24 16:44:39;;;;;;;15.07;8.03;;;;;;;;;;10499824;28;20020;-76
2022/03/24 16:49:39;;;;;;;15.30;8.75;;;;;;;;;;10476838;28;20051;-77
2022/03/24 16:54:39;;;;;;;20.52;6.82;;;;;;;;;;10475314;28;20020;-74
2022/03/24 16:59:39;;;;;;;18.25;8.02;;;;;;;;;;10434404;28;20472;-75
2022/03/24 17:04:40;;;;;;;15.00;7.65;;;;;;;;;;10435208;28;20407;-74
2022/03/24 17:09:40;;;;;;;20.67;9.65;;;;;;;;;;10434257;28;20024;-77
2022/03/24 17:14:40;;;;;;;22.77;9.80;;;;;;;;;;10451489;28;20014;-74
2022/03/24 17:19:41;;;;;;;24.45;10.07;;;;;;;;;;10439301;28;20091;-73
2022/03/24 17:24:41;;;;;;;32.22;11.50;;;;;;;;;;10451347;28;20088;-75
2022/03/24 17:29:41;;;;;;;23.60;9.87;;;;;;;;;;10432820;28;20013;-76
2022/03/24 17:34:42;;;;;;;21.98;9.60;;;;;;;;;;10449337;28;20013;-79
2022/03/24 17:39:43;;;;;;;24.50;11.25;;;;;;;;;;10449962;28;20476;-74
2022/03/24 17:44:44;;;;;;;19.45;9.95;;;;;;;;;;10421452;28;20127;-76
2022/03/24 17:49:44;;;;;;;26.60;11.85;;;;;;;;;;10474571;28;20094;-75
2022/03/24 17:54:44;;;;;;;15.90;8.98;;;;;;;;;;10449009;28;20020;-74
2022/03/24 17:59:45;;;;;;;20.60;9.73;;;;;;;;;;10450488;28;20375;-76
2022/03/24 18:04:45;;;;;;;20.38;9.57;;;;;;;;;;10439606;28;20029;-72
2022/03/24 18:09:45;;;;;;;18.27;10.57;;;;;;;;;;10482084;28;20036;-71
2022/03/24 18:14:46;;;;;;;15.18;9.50;;;;;;;;;;10470945;28;20016;-71
2022/03/24 18:19:46;;;;;;;28.03;10.67;;;;;;;;;;10487860;28;20451;-72
2022/03/24 18:24:46;;;;;;;20.67;9.57;;;;;;;;;;10470044;28;20541;-75
2022/03/24 18:29:46;;;;;;;19.02;9.70;;;;;;;;;;10466647;28;20023;-77
2022/03/24 18:34:47;;;;;;;18.38;8.80;;;;;;;;;;10469813;28;20024;-73
2022/03/24 18:39:47;;;;;;;16.92;8.65;;;;;;;;;;10466670;28;20486;-71
2022/03/24 18:44:47;;;;;;;20.80;10.00;;;;;;;;;;10469049;28;20613;-75
2022/03/24 18:49:48;;;;;;;21.07;10.17;;;;;;;;;;10468785;28;20029;-72
2022/03/24 18:54:48;;;;;;;15.98;8.45;;;;;;;;;;10465590;28;20251;-73
2022/03/24 18:59:48;;;;;;;15.45;7.53;;;;;;;;;;10468555;28;20036;-72
2022/03/24 19:04:49;;;;;;;16.05;7.32;;;;;;;;;;10468009;28;20020;-72
2022/03/24 19:09:50;;;;;;;21.00;8.10;;;;;;;;;;10467912;28;20561;-70
2022/03/24 19:14:51;;;;;;;24.25;8.32;;;;;;;;;;10468062;28;20108;-71
2022/03/24 19:19:52;;;;;;;15.18;8.95;;;;;;;;;;10466564;28;20025;-72
2022/03/24 19:24:52;;;;;;;27.02;8.45;;;;;;;;;;10470615;28;20028;-71
2022/03/24 19:29:53;;;;;;;16.83;7.65;;;;;;;;;;10470598;28;20459;-72
2022/03/24 19:34:53;;;;;;;19.60;7.25;;;;;;;;;;10459617;28;20024;-74
2022/03/24 19:39:54;;;;;;;10.55;7.05;;;;;;;;;;10468168;28;20031;-72
2022/03/24 19:44:55;;;;;;;19.48;6.82;;;;;;;;;;10455323;28;20031;-73
2022/03/24 19:49:55;;;;;;;17.83;7.70;;;;;;;;;;10427783;28;20116;-74
2022/03/24 19:54:55;;;;;;;14.85;7.68;;;;;;;;;;10429186;28;20051;-74
2022/03/24 19:59:56;;;;;;;17.27;7.77;;;;;;;;;;10427790;28;20479;-71
2022/03/24 20:04:56;;;;;;;12.03;7.43;;;;;;;;;;10450229;28;20024;-72
2022/03/24 20:09:56;;;;;;;17.25;8.45;;;;;;;;;;10491603;28;20663;-72
2022/03/24 20:14:57;;;;;;;19.10;7.67;;;;;;;;;;10505488;28;20047;-71
2022/03/24 20:19:57;;;;;;;13.27;7.07;;;;;;;;;;10488633;28;20012;-71
2022/03/24 20:24:57;;;;;;;18.73;8.10;;;;;;;;;;10481490;28;20480;-75
2022/03/24 20:29:58;;;;;;;17.65;7.88;;;;;;;;;;10509134;28;20278;-72
2022/03/24 20:34:58;;;;;;;16.48;7.60;;;;;;;;;;10441593;28;20028;-71
2022/03/24 20:40:00;;;;;;;18.37;7.50;;;;;;;;;;10444505;28;20025;-72
2022/03/24 20:45:04;;;;;;;15.60;8.02;;;;;;;;;;10449987;28;20040;-71
2022/03/24 20:50:05;;;;;;;18.33;8.05;;;;;;;;;;10488462;28;20510;-72
2022/03/24 20:55:05;;;;;;;16.42;7.55;;;;;;;;;;10485762;28;20099;-71
2022/03/24 21:00:08;;;;;;;14.25;7.95;;;;;;;;;;10486165;28;20024;-73
2022/03/24 21:05:09;;;;;;;17.08;8.45;;;;;;;;;;10444203;28;20025;-71
2022/03/24 21:10:09;;;;;;;17.95;9.07;;;;;;;;;;10446982;28;20375;-71
2022/03/24 21:15:09;;;;;;;19.93;8.33;;;;;;;;;;10452004;28;20025;-74
2022/03/24 21:20:10;;;;;;;14.93;7.22;;;;;;;;;;10451869;28;20029;-70
2022/03/24 21:25:11;;;;;;;16.02;7.80;;;;;;;;;;10459044;28;20020;-72
2022/03/24 21:30:12;;;;;;;15.30;7.72;;;;;;;;;;10500736;28;20020;-74
2022/03/24 21:35:13;;;;;;;18.00;7.43;;;;;;;;;;10516717;28;20580;-72
2022/03/24 21:40:13;;;;;;;16.33;8.57;;;;;;;;;;10516890;28;20176;-71
2022/03/24 21:45:13;;;;;;;15.05;8.20;;;;;;;;;;10516571;28;20059;-72
2022/03/24 21:50:14;;;;;;;21.90;8.93;;;;;;;;;;10534443;28;20052;-71
2022/03/24 21:55:14;;;;;;;16.67;8.25;;;;;;;;;;10516096;28;20027;-72
2022/03/24 22:00:18;;;;;;;32.28;8.45;;;;;;;;;;10515444;28;20028;-72
2022/03/24 22:05:18;;;;;;;16.38;7.40;;;;;;;;;;10515901;28;20089;-72
2022/03/24 22:10:18;;;;;;;18.38;7.72;;;;;;;;;;10515428;28;20024;-72
2022/03/24 22:15:20;;;;;;;17.50;8.53;;;;;;;;;;10515152;28;20023;-71
2022/03/24 22:20:20;;;;;;;23.77;8.48;;;;;;;;;;10515428;28;20255;-72
2022/03/24 22:25:21;;;;;;;18.38;8.50;;;;;;;;;;10533218;28;20053;-73
2022/03/24 22:30:21;;;;;;;13.70;8.17;;;;;;;;;;10514428;28;20024;-73
2022/03/24 22:35:22;;;;;;;22.23;7.83;;;;;;;;;;10496281;28;20255;-72
2022/03/24 22:40:22;;;;;;;11.68;7.30;;;;;;;;;;10431600;28;20033;-73
2022/03/24 22:45:23;;;;;;;14.23;7.87;;;;;;;;;;10431010;28;20064;-71
2022/03/24 22:50:24;;;;;;;20.70;7.80;;;;;;;;;;10449064;28;20403;-72
2022/03/24 22:55:24;;;;;;;13.23;7.33;;;;;;;;;;10431281;28;20028;-72
2022/03/24 23:00:31;;;;;;;20.43;7.83;;;;;;;;;;10430668;28;20274;-72
2022/03/24 23:05:32;;;;;;;18.83;7.75;;;;;;;;;;10430271;28;20059;-71
2022/03/24 23:10:32;;;;;;;17.48;8.80;;;;;;;;;;10430270;28;20024;-77
2022/03/24 23:15:33;;;;;;;17.67;9.17;;;;;;;;;;10429890;28;20017;-71
2022/03/24 23:20:33;;;;;;;15.20;7.30;;;;;;;;;;10447954;28;20040;-72
2022/03/24 23:25:33;;;;;;;14.25;7.60;;;;;;;;;;10447734;28;20267;-71
2022/03/24 23:30:34;;;;;;;13.53;7.27;;;;;;;;;;10429770;28;20040;-76
2022/03/24 23:35:34;;;;;;;16.53;8.47;;;;;;;;;;10429451;28;20086;-73
2022/03/24 23:40:35;;;;;;;14.10;7.82;;;;;;;;;;10429793;28;20037;-71
2022/03/24 23:45:35;;;;;;;15.70;7.97;;;;;;;;;;10429063;28;20068;-72
2022/03/24 23:50:36;;;;;;;13.85;7.63;;;;;;;;;;10429344;28;20178;-75
2022/03/24 23:55:36;;;;;;;16.20;7.72;;;;;;;;;;10429163;28;20025;-71
